London Corbin Airport Magee Field
KLOZ : now visible

Airfield :











YOU CAN JOIN US ON...

 
LOGIN :

Register | Disclaimer

   EN    FR    IT 

 









Legend :    VFR   Marginal VFR   IFR   Intensive IFR   Very Intensive IFR
Visi :
Ceiling :
>= 8 km
>= 3000ft
5 to 8 km
1000 to 3000 ft
1500m to 5 km
500 to 1000 ft
800 to 1500m
200 to 500 ft
< 800m
< 200 ft
Symbols :   Thunderstorms  Fog  Heavy snow  Heavy precipitations  Wind > 20 kt






- Airport Elevation : 1212 ft


KLOZ - London Corbin Magee Field

CURRENT METAR :
  • 040453Z AUTO 00000KT 10SM BKN043 23/19 A3016 RMK AO2 SLP199 T02330194 403170200

EXPIRED METARs :
  • 040353Z AUTO 03003KT 10SM CLR 23/19 A3016 RMK AO2 SLP200 T02330194
  • 040253Z AUTO 04003KT 10SM CLR 24/19 A3014 RMK AO2 SLP194 T02390194 53012

TAF KLOZ
Valid from the 04 at 00:00 until the 05 at 00:00 UTC


032337Z 0400/0424 VRB04KT P6SM SCT150
FM040700 VRB03KT 3SM BR FEW250
TEMPO 0408/0412 1SM BR SCT005
FM041300 VRB03KT P6SM FEW050 SCT250
KZID FIR / North America



MET'MAP, your aeronautical weather chart ! - Copyright ORBIFLY December 2007 - Disclaimer

ORBIFLY MET'MAP TEAM :

Programming & Development : Alexandra Zaïnal
Original concept : Baudouin d'Aumeries
Technical & hardware support : Manuel Goepfert
Assistance : Marc-Olivier Méhu




SOURCES & CREDITS :

   NOAA       Earth
Advisory